Dunlow, West Virginia
Current Conditions -  °F | °C
As of 5:35 AM on Thursday 27 Nov 2014 (Local Time) from KSJS Reporting Station
Overcast Overcast  
Wind Chill: 27°   Ceiling: 900
Heat Index: 33°   Visibility: 10mi
Dew Point: 30°   Wind: 6mph
Humidity: 89%   Direction: 350°N
Pressure: 30.04"   Gusts: NA
Location:  38.02°N, 82.43°W
Report Text: KSJS 271035Z AUTO 35005KT 10SM BKN009 OVC065 01/M01 A3004 RMK AO2 T00051011
Loading
Personal Weather Stations






























Interactive Weather Map New forecast layout! Learn more

10-Day Weather Forecast

Advertisements
Track Severe Weather on mobile